sensor_id;sensor_type;location;lat;lon;timestamp;P1;durP1;ratioP1;P2;durP2;ratioP2
29940;SDS011;16801;53.562;10.038;2022-11-20T00:00:31;1.73;;;1.63;;
29940;SDS011;16801;53.562;10.038;2022-11-20T00:03:53;2.50;;;1.77;;
29940;SDS011;16801;53.562;10.038;2022-11-20T00:07:15;1.93;;;1.83;;
29940;SDS011;16801;53.562;10.038;2022-11-20T00:10:38;3.40;;;2.17;;
29940;SDS011;16801;53.562;10.038;2022-11-20T00:14:00;2.27;;;2.07;;
29940;SDS011;16801;53.562;10.038;2022-11-20T00:17:22;2.73;;;1.73;;
29940;SDS011;16801;53.562;10.038;2022-11-20T00:20:42;3.50;;;2.57;;
29940;SDS011;16801;53.562;10.038;2022-11-20T00:24:04;2.37;;;2.20;;
29940;SDS011;16801;53.562;10.038;2022-11-20T00:27:26;4.93;;;2.67;;
29940;SDS011;16801;53.562;10.038;2022-11-20T00:30:47;1.80;;;1.60;;
29940;SDS011;16801;53.562;10.038;2022-11-20T00:34:08;2.30;;;1.70;;
29940;SDS011;16801;53.562;10.038;2022-11-20T00:37:30;2.03;;;1.77;;
29940;SDS011;16801;53.562;10.038;2022-11-20T00:40:54;1.60;;;1.50;;
29940;SDS011;16801;53.562;10.038;2022-11-20T00:44:16;2.37;;;2.03;;
29940;SDS011;16801;53.562;10.038;2022-11-20T00:47:37;2.70;;;1.80;;
29940;SDS011;16801;53.562;10.038;2022-11-20T00:50:58;2.13;;;2.00;;
29940;SDS011;16801;53.562;10.038;2022-11-20T00:54:19;1.83;;;1.67;;
29940;SDS011;16801;53.562;10.038;2022-11-20T00:57:40;2.47;;;2.27;;
29940;SDS011;16801;53.562;10.038;2022-11-20T01:01:02;2.27;;;1.57;;
29940;SDS011;16801;53.562;10.038;2022-11-20T01:04:25;1.70;;;1.60;;
29940;SDS011;16801;53.562;10.038;2022-11-20T01:07:46;2.20;;;2.03;;
29940;SDS011;16801;53.562;10.038;2022-11-20T01:11:07;2.33;;;1.80;;
29940;SDS011;16801;53.562;10.038;2022-11-20T01:14:29;2.83;;;1.73;;
29940;SDS011;16801;53.562;10.038;2022-11-20T01:17:52;3.13;;;2.40;;
29940;SDS011;16801;53.562;10.038;2022-11-20T01:21:14;2.00;;;1.90;;
29940;SDS011;16801;53.562;10.038;2022-11-20T01:24:37;3.40;;;3.10;;
29940;SDS011;16801;53.562;10.038;2022-11-20T01:27:58;3.33;;;2.97;;
29940;SDS011;16801;53.562;10.038;2022-11-20T01:31:19;2.50;;;1.50;;
29940;SDS011;16801;53.562;10.038;2022-11-20T01:34:43;4.20;;;2.50;;
29940;SDS011;16801;53.562;10.038;2022-11-20T01:38:05;1.97;;;1.67;;
29940;SDS011;16801;53.562;10.038;2022-11-20T01:41:26;1.70;;;1.60;;
29940;SDS011;16801;53.562;10.038;2022-11-20T01:48:58;2.23;;;2.13;;
29940;SDS011;16801;53.562;10.038;2022-11-20T01:52:25;2.47;;;2.07;;
29940;SDS011;16801;53.562;10.038;2022-11-20T01:55:51;2.50;;;2.00;;
29940;SDS011;16801;53.562;10.038;2022-11-20T01:59:15;2.13;;;1.93;;
29940;SDS011;16801;53.562;10.038;2022-11-20T02:02:39;4.87;;;3.20;;
29940;SDS011;16801;53.562;10.038;2022-11-20T02:06:04;2.00;;;1.67;;
29940;SDS011;16801;53.562;10.038;2022-11-20T02:09:33;2.30;;;2.00;;
29940;SDS011;16801;53.562;10.038;2022-11-20T02:12:53;2.27;;;2.00;;
29940;SDS011;16801;53.562;10.038;2022-11-20T02:16:33;2.33;;;2.13;;
29940;SDS011;16801;53.562;10.038;2022-11-20T02:19:58;2.30;;;2.10;;
29940;SDS011;16801;53.562;10.038;2022-11-20T02:23:20;1.83;;;1.73;;
29940;SDS011;16801;53.562;10.038;2022-11-20T02:26:50;1.77;;;1.60;;
29940;SDS011;16801;53.562;10.038;2022-11-20T02:30:13;2.10;;;1.77;;
29940;SDS011;16801;53.562;10.038;2022-11-20T02:33:34;3.03;;;1.90;;
29940;SDS011;16801;53.562;10.038;2022-11-20T02:36:55;3.47;;;2.30;;
29940;SDS011;16801;53.562;10.038;2022-11-20T02:40:17;1.47;;;1.37;;
29940;SDS011;16801;53.562;10.038;2022-11-20T02:43:40;1.93;;;1.80;;
29940;SDS011;16801;53.562;10.038;2022-11-20T02:47:00;5.23;;;2.40;;
29940;SDS011;16801;53.562;10.038;2022-11-20T02:50:22;1.53;;;1.43;;
29940;SDS011;16801;53.562;10.038;2022-11-20T02:53:43;3.17;;;2.77;;
29940;SDS011;16801;53.562;10.038;2022-11-20T02:57:04;1.57;;;1.47;;
29940;SDS011;16801;53.562;10.038;2022-11-20T03:00:26;2.30;;;1.70;;
29940;SDS011;16801;53.562;10.038;2022-11-20T03:03:47;1.83;;;1.60;;
29940;SDS011;16801;53.562;10.038;2022-11-20T03:07:08;2.43;;;2.23;;
29940;SDS011;16801;53.562;10.038;2022-11-20T03:10:30;2.60;;;2.30;;
29940;SDS011;16801;53.562;10.038;2022-11-20T03:13:51;3.53;;;1.60;;
29940;SDS011;16801;53.562;10.038;2022-11-20T03:17:13;2.97;;;2.10;;
29940;SDS011;16801;53.562;10.038;2022-11-20T03:20:34;2.00;;;1.87;;
29940;SDS011;16801;53.562;10.038;2022-11-20T03:23:55;1.97;;;1.87;;
29940;SDS011;16801;53.562;10.038;2022-11-20T03:27:15;1.87;;;1.77;;
29940;SDS011;16801;53.562;10.038;2022-11-20T03:30:36;2.10;;;2.00;;
29940;SDS011;16801;53.562;10.038;2022-11-20T03:33:58;1.60;;;1.50;;
29940;SDS011;16801;53.562;10.038;2022-11-20T03:37:20;1.63;;;1.47;;
29940;SDS011;16801;53.562;10.038;2022-11-20T03:40:41;3.03;;;2.77;;
29940;SDS011;16801;53.562;10.038;2022-11-20T03:44:03;1.83;;;1.57;;
29940;SDS011;16801;53.562;10.038;2022-11-20T03:47:25;3.83;;;2.07;;
29940;SDS011;16801;53.562;10.038;2022-11-20T03:50:47;2.20;;;2.10;;
29940;SDS011;16801;53.562;10.038;2022-11-20T03:54:08;2.13;;;1.90;;
29940;SDS011;16801;53.562;10.038;2022-11-20T03:57:29;2.20;;;2.00;;
29940;SDS011;16801;53.562;10.038;2022-11-20T04:00:50;1.93;;;1.83;;
29940;SDS011;16801;53.562;10.038;2022-11-20T04:04:11;3.23;;;1.67;;
29940;SDS011;16801;53.562;10.038;2022-11-20T04:07:34;1.80;;;1.70;;
29940;SDS011;16801;53.562;10.038;2022-11-20T04:10:56;2.80;;;1.90;;
29940;SDS011;16801;53.562;10.038;2022-11-20T04:14:16;2.17;;;1.97;;
29940;SDS011;16801;53.562;10.038;2022-11-20T04:17:37;2.23;;;2.10;;
29940;SDS011;16801;53.562;10.038;2022-11-20T04:20:58;2.03;;;1.80;;
29940;SDS011;16801;53.562;10.038;2022-11-20T04:24:20;6.30;;;1.80;;
29940;SDS011;16801;53.562;10.038;2022-11-20T04:27:41;2.23;;;2.13;;
29940;SDS011;16801;53.562;10.038;2022-11-20T04:31:03;1.57;;;1.47;;
29940;SDS011;16801;53.562;10.038;2022-11-20T04:34:25;2.23;;;1.43;;
29940;SDS011;16801;53.562;10.038;2022-11-20T04:37:46;2.30;;;2.00;;
29940;SDS011;16801;53.562;10.038;2022-11-20T04:41:14;2.23;;;1.90;;
29940;SDS011;16801;53.562;10.038;2022-11-20T04:44:36;3.10;;;2.90;;
29940;SDS011;16801;53.562;10.038;2022-11-20T04:47:57;2.80;;;2.27;;
29940;SDS011;16801;53.562;10.038;2022-11-20T04:51:18;1.90;;;1.70;;
29940;SDS011;16801;53.562;10.038;2022-11-20T04:54:39;2.23;;;1.67;;
29940;SDS011;16801;53.562;10.038;2022-11-20T04:58:01;2.77;;;2.03;;
29940;SDS011;16801;53.562;10.038;2022-11-20T05:01:23;14.80;;;2.63;;
29940;SDS011;16801;53.562;10.038;2022-11-20T05:04:44;1.83;;;1.67;;
29940;SDS011;16801;53.562;10.038;2022-11-20T05:08:05;1.60;;;1.50;;
29940;SDS011;16801;53.562;10.038;2022-11-20T05:11:26;2.83;;;2.13;;
29940;SDS011;16801;53.562;10.038;2022-11-20T05:14:49;1.83;;;1.73;;
29940;SDS011;16801;53.562;10.038;2022-11-20T05:18:11;1.63;;;1.53;;
29940;SDS011;16801;53.562;10.038;2022-11-20T05:21:32;1.73;;;1.63;;
29940;SDS011;16801;53.562;10.038;2022-11-20T05:24:52;1.80;;;1.57;;
29940;SDS011;16801;53.562;10.038;2022-11-20T05:28:13;5.60;;;2.00;;
29940;SDS011;16801;53.562;10.038;2022-11-20T05:31:35;2.43;;;2.23;;
29940;SDS011;16801;53.562;10.038;2022-11-20T05:34:56;1.63;;;1.53;;
29940;SDS011;16801;53.562;10.038;2022-11-20T05:38:17;2.00;;;1.80;;
29940;SDS011;16801;53.562;10.038;2022-11-20T05:41:38;3.23;;;2.10;;
29940;SDS011;16801;53.562;10.038;2022-11-20T05:44:59;2.17;;;2.03;;
29940;SDS011;16801;53.562;10.038;2022-11-20T05:48:23;2.33;;;2.13;;
29940;SDS011;16801;53.562;10.038;2022-11-20T05:51:44;2.60;;;2.40;;
29940;SDS011;16801;53.562;10.038;2022-11-20T05:55:05;1.97;;;1.87;;
29940;SDS011;16801;53.562;10.038;2022-11-20T05:58:27;2.43;;;2.23;;
29940;SDS011;16801;53.562;10.038;2022-11-20T06:01:48;2.63;;;2.43;;
29940;SDS011;16801;53.562;10.038;2022-11-20T06:05:10;5.60;;;3.33;;
29940;SDS011;16801;53.562;10.038;2022-11-20T06:08:31;2.30;;;2.13;;
29940;SDS011;16801;53.562;10.038;2022-11-20T06:11:53;2.40;;;1.97;;
29940;SDS011;16801;53.562;10.038;2022-11-20T06:15:14;5.63;;;2.07;;
29940;SDS011;16801;53.562;10.038;2022-11-20T06:18:35;3.73;;;2.67;;
29940;SDS011;16801;53.562;10.038;2022-11-20T06:21:57;2.13;;;1.80;;
29940;SDS011;16801;53.562;10.038;2022-11-20T06:25:18;3.20;;;2.80;;
29940;SDS011;16801;53.562;10.038;2022-11-20T06:28:39;3.07;;;2.70;;
29940;SDS011;16801;53.562;10.038;2022-11-20T06:32:00;3.50;;;3.00;;
29940;SDS011;16801;53.562;10.038;2022-11-20T06:35:21;5.23;;;3.30;;
29940;SDS011;16801;53.562;10.038;2022-11-20T06:38:43;6.83;;;3.97;;
29940;SDS011;16801;53.562;10.038;2022-11-20T06:42:04;5.10;;;3.33;;
29940;SDS011;16801;53.562;10.038;2022-11-20T06:45:25;4.97;;;4.57;;
29940;SDS011;16801;53.562;10.038;2022-11-20T06:48:46;6.03;;;3.13;;
29940;SDS011;16801;53.562;10.038;2022-11-20T06:52:08;5.93;;;4.07;;
29940;SDS011;16801;53.562;10.038;2022-11-20T06:55:31;4.30;;;3.13;;
29940;SDS011;16801;53.562;10.038;2022-11-20T06:58:52;3.20;;;3.00;;
29940;SDS011;16801;53.562;10.038;2022-11-20T07:02:12;7.30;;;3.80;;
29940;SDS011;16801;53.562;10.038;2022-11-20T07:05:34;4.17;;;3.67;;
29940;SDS011;16801;53.562;10.038;2022-11-20T07:08:55;2.77;;;2.53;;
29940;SDS011;16801;53.562;10.038;2022-11-20T07:12:18;3.30;;;3.00;;
29940;SDS011;16801;53.562;10.038;2022-11-20T07:15:38;4.63;;;3.93;;
29940;SDS011;16801;53.562;10.038;2022-11-20T07:18:59;3.80;;;2.83;;
29940;SDS011;16801;53.562;10.038;2022-11-20T07:22:20;2.47;;;2.27;;
29940;SDS011;16801;53.562;10.038;2022-11-20T07:25:41;3.10;;;2.53;;
29940;SDS011;16801;53.562;10.038;2022-11-20T07:29:04;3.47;;;1.97;;
29940;SDS011;16801;53.562;10.038;2022-11-20T07:32:25;1.70;;;1.60;;
29940;SDS011;16801;53.562;10.038;2022-11-20T07:35:45;3.40;;;1.50;;
29940;SDS011;16801;53.562;10.038;2022-11-20T07:39:06;1.93;;;1.80;;
29940;SDS011;16801;53.562;10.038;2022-11-20T07:42:27;1.90;;;1.80;;
29940;SDS011;16801;53.562;10.038;2022-11-20T07:45:50;2.00;;;1.77;;
29940;SDS011;16801;53.562;10.038;2022-11-20T07:49:11;2.53;;;2.43;;
29940;SDS011;16801;53.562;10.038;2022-11-20T07:52:32;1.87;;;1.77;;
29940;SDS011;16801;53.562;10.038;2022-11-20T07:55:53;2.93;;;1.83;;
29940;SDS011;16801;53.562;10.038;2022-11-20T07:59:14;2.63;;;2.10;;
29940;SDS011;16801;53.562;10.038;2022-11-20T08:02:37;3.40;;;2.30;;
29940;SDS011;16801;53.562;10.038;2022-11-20T08:05:59;2.73;;;2.63;;
29940;SDS011;16801;53.562;10.038;2022-11-20T08:09:20;2.77;;;2.53;;
29940;SDS011;16801;53.562;10.038;2022-11-20T08:12:45;3.90;;;2.93;;
29940;SDS011;16801;53.562;10.038;2022-11-20T08:16:24;3.00;;;2.70;;
29940;SDS011;16801;53.562;10.038;2022-11-20T08:19:46;2.43;;;2.23;;
29940;SDS011;16801;53.562;10.038;2022-11-20T08:23:07;2.87;;;2.40;;
29940;SDS011;16801;53.562;10.038;2022-11-20T08:26:28;2.83;;;2.37;;
29940;SDS011;16801;53.562;10.038;2022-11-20T08:29:49;2.03;;;1.87;;
29940;SDS011;16801;53.562;10.038;2022-11-20T08:33:10;1.83;;;1.73;;
29940;SDS011;16801;53.562;10.038;2022-11-20T08:36:33;2.07;;;1.80;;
29940;SDS011;16801;53.562;10.038;2022-11-20T08:39:54;6.73;;;1.90;;
29940;SDS011;16801;53.562;10.038;2022-11-20T08:43:16;3.97;;;2.60;;
29940;SDS011;16801;53.562;10.038;2022-11-20T08:46:37;2.23;;;2.03;;
29940;SDS011;16801;53.562;10.038;2022-11-20T08:50:00;1.80;;;1.53;;
29940;SDS011;16801;53.562;10.038;2022-11-20T08:53:22;1.93;;;1.60;;
29940;SDS011;16801;53.562;10.038;2022-11-20T08:56:43;1.77;;;1.67;;
29940;SDS011;16801;53.562;10.038;2022-11-20T09:00:04;1.77;;;1.63;;
29940;SDS011;16801;53.562;10.038;2022-11-20T09:03:28;1.60;;;1.50;;
29940;SDS011;16801;53.562;10.038;2022-11-20T09:06:49;2.00;;;1.80;;
29940;SDS011;16801;53.562;10.038;2022-11-20T09:10:12;1.90;;;1.37;;
29940;SDS011;16801;53.562;10.038;2022-11-20T09:13:33;3.70;;;2.07;;
29940;SDS011;16801;53.562;10.038;2022-11-20T09:16:55;1.87;;;1.63;;
29940;SDS011;16801;53.562;10.038;2022-11-20T09:20:16;2.77;;;2.57;;
29940;SDS011;16801;53.562;10.038;2022-11-20T09:23:38;1.70;;;1.37;;
29940;SDS011;16801;53.562;10.038;2022-11-20T09:27:02;2.10;;;1.90;;
29940;SDS011;16801;53.562;10.038;2022-11-20T09:30:24;1.73;;;1.63;;
29940;SDS011;16801;53.562;10.038;2022-11-20T09:33:46;2.53;;;1.87;;
29940;SDS011;16801;53.562;10.038;2022-11-20T09:37:06;2.03;;;1.57;;
29940;SDS011;16801;53.562;10.038;2022-11-20T09:40:28;1.63;;;1.53;;
29940;SDS011;16801;53.562;10.038;2022-11-20T09:43:52;2.63;;;2.27;;
29940;SDS011;16801;53.562;10.038;2022-11-20T09:47:21;1.40;;;1.30;;
29940;SDS011;16801;53.562;10.038;2022-11-20T09:50:55;3.43;;;1.60;;
29940;SDS011;16801;53.562;10.038;2022-11-20T09:54:21;2.00;;;1.80;;
29940;SDS011;16801;53.562;10.038;2022-11-20T09:57:48;2.00;;;1.90;;
29940;SDS011;16801;53.562;10.038;2022-11-20T10:01:14;1.90;;;1.40;;
29940;SDS011;16801;53.562;10.038;2022-11-20T10:04:36;1.77;;;1.43;;
29940;SDS011;16801;53.562;10.038;2022-11-20T10:08:07;1.70;;;1.60;;
29940;SDS011;16801;53.562;10.038;2022-11-20T10:11:40;2.10;;;2.00;;
29940;SDS011;16801;53.562;10.038;2022-11-20T10:15:11;1.40;;;1.30;;
29940;SDS011;16801;53.562;10.038;2022-11-20T10:18:47;2.17;;;1.87;;
29940;SDS011;16801;53.562;10.038;2022-11-20T10:22:26;1.77;;;1.53;;
29940;SDS011;16801;53.562;10.038;2022-11-20T10:26:01;1.93;;;1.57;;
29940;SDS011;16801;53.562;10.038;2022-11-20T10:29:25;1.47;;;1.37;;
29940;SDS011;16801;53.562;10.038;2022-11-20T10:32:54;1.90;;;1.50;;
29940;SDS011;16801;53.562;10.038;2022-11-20T10:36:23;1.27;;;1.27;;
29940;SDS011;16801;53.562;10.038;2022-11-20T10:39:51;2.63;;;1.23;;
29940;SDS011;16801;53.562;10.038;2022-11-20T10:43:19;2.00;;;1.90;;
29940;SDS011;16801;53.562;10.038;2022-11-20T10:46:45;1.83;;;1.73;;
29940;SDS011;16801;53.562;10.038;2022-11-20T10:50:08;1.87;;;1.77;;
29940;SDS011;16801;53.562;10.038;2022-11-20T10:53:45;1.90;;;1.80;;
29940;SDS011;16801;53.562;10.038;2022-11-20T10:57:17;2.07;;;1.90;;
29940;SDS011;16801;53.562;10.038;2022-11-20T11:00:50;1.87;;;1.77;;
29940;SDS011;16801;53.562;10.038;2022-11-20T11:04:28;1.67;;;1.57;;
29940;SDS011;16801;53.562;10.038;2022-11-20T11:07:54;2.17;;;1.97;;
29940;SDS011;16801;53.562;10.038;2022-11-20T11:11:22;2.30;;;1.53;;
29940;SDS011;16801;53.562;10.038;2022-11-20T11:14:45;2.23;;;2.03;;
29940;SDS011;16801;53.562;10.038;2022-11-20T11:18:08;3.37;;;1.63;;
29940;SDS011;16801;53.562;10.038;2022-11-20T11:21:30;3.50;;;1.83;;
29940;SDS011;16801;53.562;10.038;2022-11-20T11:24:51;1.83;;;1.73;;
29940;SDS011;16801;53.562;10.038;2022-11-20T11:28:20;1.57;;;1.47;;
29940;SDS011;16801;53.562;10.038;2022-11-20T11:31:45;1.80;;;1.70;;
29940;SDS011;16801;53.562;10.038;2022-11-20T11:35:06;1.73;;;1.63;;
29940;SDS011;16801;53.562;10.038;2022-11-20T11:38:40;2.40;;;1.67;;
29940;SDS011;16801;53.562;10.038;2022-11-20T11:42:03;1.57;;;1.47;;
29940;SDS011;16801;53.562;10.038;2022-11-20T11:45:25;1.60;;;1.50;;
29940;SDS011;16801;53.562;10.038;2022-11-20T11:48:54;1.73;;;1.63;;
29940;SDS011;16801;53.562;10.038;2022-11-20T11:52:16;1.70;;;1.60;;
29940;SDS011;16801;53.562;10.038;2022-11-20T11:55:42;1.97;;;1.87;;
29940;SDS011;16801;53.562;10.038;2022-11-20T11:59:06;2.57;;;1.97;;
29940;SDS011;16801;53.562;10.038;2022-11-20T12:02:38;1.40;;;1.30;;
29940;SDS011;16801;53.562;10.038;2022-11-20T12:06:14;1.20;;;1.20;;
29940;SDS011;16801;53.562;10.038;2022-11-20T12:09:37;1.10;;;1.10;;
29940;SDS011;16801;53.562;10.038;2022-11-20T12:13:09;0.80;;;0.80;;
29940;SDS011;16801;53.562;10.038;2022-11-20T12:16:38;1.73;;;1.63;;
29940;SDS011;16801;53.562;10.038;2022-11-20T12:20:02;1.50;;;1.40;;
29940;SDS011;16801;53.562;10.038;2022-11-20T12:23:24;3.07;;;2.70;;
29940;SDS011;16801;53.562;10.038;2022-11-20T12:26:59;6.07;;;5.33;;
29940;SDS011;16801;53.562;10.038;2022-11-20T12:30:27;3.90;;;3.43;;
29940;SDS011;16801;53.562;10.038;2022-11-20T12:37:35;8.20;;;6.37;;
29940;SDS011;16801;53.562;10.038;2022-11-20T12:41:08;1.60;;;1.50;;
29940;SDS011;16801;53.562;10.038;2022-11-20T12:45:10;1.53;;;1.43;;
29940;SDS011;16801;53.562;10.038;2022-11-20T12:48:41;1.60;;;1.50;;
29940;SDS011;16801;53.562;10.038;2022-11-20T12:52:13;1.30;;;1.20;;
29940;SDS011;16801;53.562;10.038;2022-11-20T12:55:44;1.50;;;1.40;;
29940;SDS011;16801;53.562;10.038;2022-11-20T12:59:16;1.53;;;1.20;;
29940;SDS011;16801;53.562;10.038;2022-11-20T13:03:06;1.80;;;1.70;;
29940;SDS011;16801;53.562;10.038;2022-11-20T13:06:40;1.67;;;1.57;;
29940;SDS011;16801;53.562;10.038;2022-11-20T13:10:02;1.33;;;1.03;;
29940;SDS011;16801;53.562;10.038;2022-11-20T13:13:29;3.13;;;1.63;;
29940;SDS011;16801;53.562;10.038;2022-11-20T13:16:57;2.33;;;1.50;;
29940;SDS011;16801;53.562;10.038;2022-11-20T13:20:21;1.50;;;1.40;;
29940;SDS011;16801;53.562;10.038;2022-11-20T13:23:42;2.37;;;2.00;;
29940;SDS011;16801;53.562;10.038;2022-11-20T13:27:04;1.67;;;1.50;;
29940;SDS011;16801;53.562;10.038;2022-11-20T13:30:49;1.40;;;1.23;;
29940;SDS011;16801;53.562;10.038;2022-11-20T13:34:12;1.57;;;1.47;;
29940;SDS011;16801;53.562;10.038;2022-11-20T13:37:42;1.13;;;1.13;;
29940;SDS011;16801;53.562;10.038;2022-11-20T13:41:04;1.20;;;1.17;;
29940;SDS011;16801;53.562;10.038;2022-11-20T13:44:42;1.80;;;1.70;;
29940;SDS011;16801;53.562;10.038;2022-11-20T13:48:18;1.30;;;1.20;;
29940;SDS011;16801;53.562;10.038;2022-11-20T13:51:42;1.27;;;1.17;;
29940;SDS011;16801;53.562;10.038;2022-11-20T13:55:10;3.37;;;1.80;;
29940;SDS011;16801;53.562;10.038;2022-11-20T13:58:40;1.83;;;1.73;;
29940;SDS011;16801;53.562;10.038;2022-11-20T14:02:10;2.07;;;1.87;;
29940;SDS011;16801;53.562;10.038;2022-11-20T14:05:36;1.40;;;1.30;;
29940;SDS011;16801;53.562;10.038;2022-11-20T14:08:59;1.20;;;1.20;;
29940;SDS011;16801;53.562;10.038;2022-11-20T14:12:20;2.00;;;1.60;;
29940;SDS011;16801;53.562;10.038;2022-11-20T14:15:42;1.17;;;1.10;;
29940;SDS011;16801;53.562;10.038;2022-11-20T14:22:49;1.87;;;1.57;;
29940;SDS011;16801;53.562;10.038;2022-11-20T14:26:12;2.10;;;1.90;;
29940;SDS011;16801;53.562;10.038;2022-11-20T14:29:35;7.33;;;4.93;;
29940;SDS011;16801;53.562;10.038;2022-11-20T14:33:00;4.90;;;4.50;;
29940;SDS011;16801;53.562;10.038;2022-11-20T14:36:24;2.77;;;2.33;;
29940;SDS011;16801;53.562;10.038;2022-11-20T14:39:49;2.10;;;1.57;;
29940;SDS011;16801;53.562;10.038;2022-11-20T14:43:19;2.00;;;1.80;;
29940;SDS011;16801;53.562;10.038;2022-11-20T14:46:42;2.03;;;1.90;;
29940;SDS011;16801;53.562;10.038;2022-11-20T14:50:07;3.13;;;1.60;;
29940;SDS011;16801;53.562;10.038;2022-11-20T14:53:34;2.43;;;1.67;;
29940;SDS011;16801;53.562;10.038;2022-11-20T14:56:58;1.50;;;1.40;;
29940;SDS011;16801;53.562;10.038;2022-11-20T15:00:21;3.00;;;2.30;;
29940;SDS011;16801;53.562;10.038;2022-11-20T15:03:43;1.57;;;1.47;;
29940;SDS011;16801;53.562;10.038;2022-11-20T15:07:03;2.03;;;1.37;;
29940;SDS011;16801;53.562;10.038;2022-11-20T15:10:25;1.67;;;1.57;;
29940;SDS011;16801;53.562;10.038;2022-11-20T15:13:49;2.43;;;2.33;;
29940;SDS011;16801;53.562;10.038;2022-11-20T15:17:10;1.97;;;1.80;;
29940;SDS011;16801;53.562;10.038;2022-11-20T15:20:32;1.60;;;1.50;;
29940;SDS011;16801;53.562;10.038;2022-11-20T15:23:53;2.53;;;1.47;;
29940;SDS011;16801;53.562;10.038;2022-11-20T15:27:14;1.60;;;1.50;;
29940;SDS011;16801;53.562;10.038;2022-11-20T15:30:36;1.67;;;1.53;;
29940;SDS011;16801;53.562;10.038;2022-11-20T15:33:58;2.43;;;1.43;;
29940;SDS011;16801;53.562;10.038;2022-11-20T15:37:18;1.70;;;1.60;;
29940;SDS011;16801;53.562;10.038;2022-11-20T15:40:39;9.07;;;6.57;;
29940;SDS011;16801;53.562;10.038;2022-11-20T15:44:00;11.00;;;8.23;;
29940;SDS011;16801;53.562;10.038;2022-11-20T15:47:23;5.93;;;3.73;;
29940;SDS011;16801;53.562;10.038;2022-11-20T15:50:49;1.67;;;1.57;;
29940;SDS011;16801;53.562;10.038;2022-11-20T15:54:13;3.10;;;1.87;;
29940;SDS011;16801;53.562;10.038;2022-11-20T15:57:37;3.57;;;1.50;;
29940;SDS011;16801;53.562;10.038;2022-11-20T16:00:57;1.90;;;1.80;;
29940;SDS011;16801;53.562;10.038;2022-11-20T16:04:20;2.17;;;1.87;;
29940;SDS011;16801;53.562;10.038;2022-11-20T16:07:41;3.47;;;2.10;;
29940;SDS011;16801;53.562;10.038;2022-11-20T16:11:01;3.80;;;3.03;;
29940;SDS011;16801;53.562;10.038;2022-11-20T16:14:22;2.67;;;2.43;;
29940;SDS011;16801;53.562;10.038;2022-11-20T16:18:01;3.30;;;3.00;;
29940;SDS011;16801;53.562;10.038;2022-11-20T16:21:23;2.97;;;2.43;;
29940;SDS011;16801;53.562;10.038;2022-11-20T16:24:51;3.53;;;2.27;;
29940;SDS011;16801;53.562;10.038;2022-11-20T16:28:12;2.53;;;2.33;;
29940;SDS011;16801;53.562;10.038;2022-11-20T16:31:33;4.37;;;3.93;;
29940;SDS011;16801;53.562;10.038;2022-11-20T16:34:54;3.53;;;2.27;;
29940;SDS011;16801;53.562;10.038;2022-11-20T16:38:16;1.67;;;1.57;;
29940;SDS011;16801;53.562;10.038;2022-11-20T16:41:37;1.97;;;1.87;;
29940;SDS011;16801;53.562;10.038;2022-11-20T16:44:58;3.63;;;2.00;;
29940;SDS011;16801;53.562;10.038;2022-11-20T16:48:18;1.90;;;1.70;;
29940;SDS011;16801;53.562;10.038;2022-11-20T16:51:39;2.53;;;1.83;;
29940;SDS011;16801;53.562;10.038;2022-11-20T16:55:02;3.77;;;2.93;;
29940;SDS011;16801;53.562;10.038;2022-11-20T16:58:24;2.03;;;1.93;;
29940;SDS011;16801;53.562;10.038;2022-11-20T17:01:45;6.53;;;2.40;;
29940;SDS011;16801;53.562;10.038;2022-11-20T17:05:06;2.70;;;2.50;;
29940;SDS011;16801;53.562;10.038;2022-11-20T17:08:27;5.57;;;2.57;;
29940;SDS011;16801;53.562;10.038;2022-11-20T17:11:50;2.53;;;2.13;;
29940;SDS011;16801;53.562;10.038;2022-11-20T17:15:11;1.97;;;1.80;;
29940;SDS011;16801;53.562;10.038;2022-11-20T17:18:32;4.17;;;3.53;;
29940;SDS011;16801;53.562;10.038;2022-11-20T17:21:53;3.07;;;2.73;;
29940;SDS011;16801;53.562;10.038;2022-11-20T17:25:14;3.27;;;2.97;;
29940;SDS011;16801;53.562;10.038;2022-11-20T17:28:37;2.80;;;2.57;;
29940;SDS011;16801;53.562;10.038;2022-11-20T17:31:58;2.43;;;2.20;;
29940;SDS011;16801;53.562;10.038;2022-11-20T17:35:18;5.43;;;2.40;;
29940;SDS011;16801;53.562;10.038;2022-11-20T17:38:39;3.10;;;2.60;;
29940;SDS011;16801;53.562;10.038;2022-11-20T17:42:00;2.57;;;2.37;;
29940;SDS011;16801;53.562;10.038;2022-11-20T17:45:40;3.27;;;1.97;;
29940;SDS011;16801;53.562;10.038;2022-11-20T17:49:02;6.07;;;3.57;;
29940;SDS011;16801;53.562;10.038;2022-11-20T17:52:23;5.10;;;3.43;;
29940;SDS011;16801;53.562;10.038;2022-11-20T17:55:44;3.20;;;2.20;;
29940;SDS011;16801;53.562;10.038;2022-11-20T17:59:32;2.87;;;2.37;;
29940;SDS011;16801;53.562;10.038;2022-11-20T18:02:54;2.80;;;1.83;;
29940;SDS011;16801;53.562;10.038;2022-11-20T18:06:16;3.37;;;2.60;;
29940;SDS011;16801;53.562;10.038;2022-11-20T18:09:38;2.47;;;2.27;;
29940;SDS011;16801;53.562;10.038;2022-11-20T18:12:59;4.20;;;3.27;;
29940;SDS011;16801;53.562;10.038;2022-11-20T18:16:20;8.63;;;4.10;;
29940;SDS011;16801;53.562;10.038;2022-11-20T18:19:42;3.90;;;3.00;;
29940;SDS011;16801;53.562;10.038;2022-11-20T18:23:04;3.33;;;3.03;;
29940;SDS011;16801;53.562;10.038;2022-11-20T18:26:25;3.80;;;3.50;;
29940;SDS011;16801;53.562;10.038;2022-11-20T18:29:47;3.63;;;2.70;;
29940;SDS011;16801;53.562;10.038;2022-11-20T18:33:10;5.53;;;3.40;;
29940;SDS011;16801;53.562;10.038;2022-11-20T18:36:32;3.97;;;3.33;;
29940;SDS011;16801;53.562;10.038;2022-11-20T18:39:53;3.50;;;3.00;;
29940;SDS011;16801;53.562;10.038;2022-11-20T18:43:15;5.47;;;4.97;;
29940;SDS011;16801;53.562;10.038;2022-11-20T18:46:54;5.43;;;3.43;;
29940;SDS011;16801;53.562;10.038;2022-11-20T18:50:15;6.67;;;4.93;;
29940;SDS011;16801;53.562;10.038;2022-11-20T18:53:38;6.93;;;4.63;;
29940;SDS011;16801;53.562;10.038;2022-11-20T18:57:05;7.60;;;6.47;;
29940;SDS011;16801;53.562;10.038;2022-11-20T19:00:28;8.93;;;6.63;;
29940;SDS011;16801;53.562;10.038;2022-11-20T19:03:49;8.23;;;6.07;;
29940;SDS011;16801;53.562;10.038;2022-11-20T19:07:10;9.17;;;7.47;;
29940;SDS011;16801;53.562;10.038;2022-11-20T19:10:32;10.53;;;7.07;;
29940;SDS011;16801;53.562;10.038;2022-11-20T19:13:55;7.33;;;6.63;;
29940;SDS011;16801;53.562;10.038;2022-11-20T19:17:17;10.07;;;6.60;;
29940;SDS011;16801;53.562;10.038;2022-11-20T19:20:38;11.10;;;8.10;;
29940;SDS011;16801;53.562;10.038;2022-11-20T19:24:00;11.47;;;6.60;;
29940;SDS011;16801;53.562;10.038;2022-11-20T19:27:23;11.23;;;9.27;;
29940;SDS011;16801;53.562;10.038;2022-11-20T19:30:45;7.13;;;6.40;;
29940;SDS011;16801;53.562;10.038;2022-11-20T19:34:06;9.00;;;6.30;;
29940;SDS011;16801;53.562;10.038;2022-11-20T19:37:28;8.57;;;7.60;;
29940;SDS011;16801;53.562;10.038;2022-11-20T19:40:52;7.37;;;5.17;;
29940;SDS011;16801;53.562;10.038;2022-11-20T19:44:14;8.67;;;7.67;;
29940;SDS011;16801;53.562;10.038;2022-11-20T19:47:36;11.03;;;6.60;;
29940;SDS011;16801;53.562;10.038;2022-11-20T19:50:57;7.57;;;6.30;;
29940;SDS011;16801;53.562;10.038;2022-11-20T19:54:27;8.73;;;6.30;;
29940;SDS011;16801;53.562;10.038;2022-11-20T19:57:48;8.67;;;7.20;;
29940;SDS011;16801;53.562;10.038;2022-11-20T20:01:11;11.33;;;7.47;;
29940;SDS011;16801;53.562;10.038;2022-11-20T20:04:34;10.40;;;7.43;;
29940;SDS011;16801;53.562;10.038;2022-11-20T20:07:57;8.67;;;6.67;;
29940;SDS011;16801;53.562;10.038;2022-11-20T20:11:19;9.03;;;7.07;;
29940;SDS011;16801;53.562;10.038;2022-11-20T20:14:41;11.53;;;6.33;;
29940;SDS011;16801;53.562;10.038;2022-11-20T20:18:03;8.17;;;6.70;;